sensor_id;sensor_type;location;lat;lon;timestamp;temperature;humidity
38936;DHT22;25541;47.458;9.644;2022-12-05T03:48:29;5.10;93.90
38936;DHT22;25541;47.458;9.644;2022-12-05T03:50:57;5.10;93.90
38936;DHT22;25541;47.458;9.644;2022-12-05T03:53:36;5.10;94.40
38936;DHT22;25541;47.458;9.644;2022-12-05T04:01:56;5.00;94.40
38936;DHT22;25541;47.458;9.644;2022-12-05T04:04:33;5.00;94.60
38936;DHT22;25541;47.458;9.644;2022-12-05T04:07:02;5.10;94.20
38936;DHT22;25541;47.458;9.644;2022-12-05T04:09:51;5.10;94.30
38936;DHT22;25541;47.458;9.644;2022-12-05T04:12:27;5.10;94.10
38936;DHT22;25541;47.458;9.644;2022-12-05T04:14:57;5.10;94.10
38936;DHT22;25541;47.458;9.644;2022-12-05T04:20:01;4.90;94.20
38936;DHT22;25541;47.458;9.644;2022-12-05T04:22:47;4.90;94.50
38936;DHT22;25541;47.458;9.644;2022-12-05T04:25:14;5.00;94.50
38936;DHT22;25541;47.458;9.644;2022-12-05T04:31:07;5.00;94.40
38936;DHT22;25541;47.458;9.644;2022-12-05T04:33:41;5.10;94.40
38936;DHT22;25541;47.458;9.644;2022-12-05T04:36:35;5.10;94.30
38936;DHT22;25541;47.458;9.644;2022-12-05T04:39:07;5.10;94.10
38936;DHT22;25541;47.458;9.644;2022-12-05T04:41:42;5.20;94.10
38936;DHT22;25541;47.458;9.644;2022-12-05T04:44:12;5.20;94.40
38936;DHT22;25541;47.458;9.644;2022-12-05T04:46:40;5.20;94.40
38936;DHT22;25541;47.458;9.644;2022-12-05T04:49:10;5.20;94.30
38936;DHT22;25541;47.458;9.644;2022-12-05T04:51:37;5.20;94.30
38936;DHT22;25541;47.458;9.644;2022-12-05T04:54:14;5.20;94.50
38936;DHT22;25541;47.458;9.644;2022-12-05T04:56:43;5.10;94.60
38936;DHT22;25541;47.458;9.644;2022-12-05T04:59:10;5.10;94.60
38936;DHT22;25541;47.458;9.644;2022-12-05T05:01:43;5.10;94.70
38936;DHT22;25541;47.458;9.644;2022-12-05T05:04:30;5.10;94.60
38936;DHT22;25541;47.458;9.644;2022-12-05T05:06:58;5.20;94.40
38936;DHT22;25541;47.458;9.644;2022-12-05T05:09:24;5.20;94.40
38936;DHT22;25541;47.458;9.644;2022-12-05T05:11:49;5.20;94.40
38936;DHT22;25541;47.458;9.644;2022-12-05T05:14:15;5.30;94.50
38936;DHT22;25541;47.458;9.644;2022-12-05T05:16:42;5.30;94.40
38936;DHT22;25541;47.458;9.644;2022-12-05T05:19:09;5.40;94.00
38936;DHT22;25541;47.458;9.644;2022-12-05T05:21:38;5.50;93.70
38936;DHT22;25541;47.458;9.644;2022-12-05T05:24:04;5.60;93.50
38936;DHT22;25541;47.458;9.644;2022-12-05T05:26:33;5.70;93.10
38936;DHT22;25541;47.458;9.644;2022-12-05T05:28:59;5.70;93.10
38936;DHT22;25541;47.458;9.644;2022-12-05T05:31:25;5.60;93.10
38936;DHT22;25541;47.458;9.644;2022-12-05T05:33:52;5.50;93.50
38936;DHT22;25541;47.458;9.644;2022-12-05T05:36:19;5.50;93.90
38936;DHT22;25541;47.458;9.644;2022-12-05T05:38:48;5.50;93.90
38936;DHT22;25541;47.458;9.644;2022-12-05T05:41:19;5.70;94.10
38936;DHT22;25541;47.458;9.644;2022-12-05T05:43:45;5.70;93.30
38936;DHT22;25541;47.458;9.644;2022-12-05T05:46:13;5.70;93.50
38936;DHT22;25541;47.458;9.644;2022-12-05T05:48:39;5.60;94.10
38936;DHT22;25541;47.458;9.644;2022-12-05T05:51:06;5.50;93.90
38936;DHT22;25541;47.458;9.644;2022-12-05T05:53:32;5.60;93.90
38936;DHT22;25541;47.458;9.644;2022-12-05T05:56:02;5.60;93.90
38936;DHT22;25541;47.458;9.644;2022-12-05T05:58:28;5.70;94.00
38936;DHT22;25541;47.458;9.644;2022-12-05T06:00:53;5.70;93.90
38936;DHT22;25541;47.458;9.644;2022-12-05T06:03:19;5.80;93.50
38936;DHT22;25541;47.458;9.644;2022-12-05T06:05:55;5.70;93.40
38936;DHT22;25541;47.458;9.644;2022-12-05T06:08:21;5.70;93.30
38936;DHT22;25541;47.458;9.644;2022-12-05T06:10:47;5.70;93.30
38936;DHT22;25541;47.458;9.644;2022-12-05T06:13:12;5.70;93.20
38936;DHT22;25541;47.458;9.644;2022-12-05T06:15:38;5.80;93.20
38936;DHT22;25541;47.458;9.644;2022-12-05T06:18:04;5.70;93.20
38936;DHT22;25541;47.458;9.644;2022-12-05T06:20:29;5.70;93.30
38936;DHT22;25541;47.458;9.644;2022-12-05T06:22:55;5.70;93.30
38936;DHT22;25541;47.458;9.644;2022-12-05T06:25:21;5.70;93.40
38936;DHT22;25541;47.458;9.644;2022-12-05T06:27:46;5.70;93.50
38936;DHT22;25541;47.458;9.644;2022-12-05T06:30:12;5.70;93.60
38936;DHT22;25541;47.458;9.644;2022-12-05T06:32:38;5.60;94.00
38936;DHT22;25541;47.458;9.644;2022-12-05T06:35:04;5.60;94.10
38936;DHT22;25541;47.458;9.644;2022-12-05T06:37:39;5.50;94.30
38936;DHT22;25541;47.458;9.644;2022-12-05T06:40:06;5.50;94.50
38936;DHT22;25541;47.458;9.644;2022-12-05T06:42:32;5.50;94.60
38936;DHT22;25541;47.458;9.644;2022-12-05T06:44:58;5.60;94.50
38936;DHT22;25541;47.458;9.644;2022-12-05T06:47:23;5.60;94.50
38936;DHT22;25541;47.458;9.644;2022-12-05T06:49:49;5.60;94.50
38936;DHT22;25541;47.458;9.644;2022-12-05T06:52:15;5.60;94.60
38936;DHT22;25541;47.458;9.644;2022-12-05T06:54:40;5.60;94.60
38936;DHT22;25541;47.458;9.644;2022-12-05T06:57:06;5.60;94.80
38936;DHT22;25541;47.458;9.644;2022-12-05T06:59:32;5.60;94.80
38936;DHT22;25541;47.458;9.644;2022-12-05T07:01:57;5.60;95.20
38936;DHT22;25541;47.458;9.644;2022-12-05T07:04:24;5.70;95.40
38936;DHT22;25541;47.458;9.644;2022-12-05T07:06:52;5.70;95.30
38936;DHT22;25541;47.458;9.644;2022-12-05T07:09:20;5.80;95.20
38936;DHT22;25541;47.458;9.644;2022-12-05T07:11:50;5.80;95.40
38936;DHT22;25541;47.458;9.644;2022-12-05T07:14:16;5.90;94.70
38936;DHT22;25541;47.458;9.644;2022-12-05T07:16:42;5.90;94.70
38936;DHT22;25541;47.458;9.644;2022-12-05T07:19:09;6.00;94.70
38936;DHT22;25541;47.458;9.644;2022-12-05T07:21:35;6.10;94.50
38936;DHT22;25541;47.458;9.644;2022-12-05T07:24:01;6.20;94.10
38936;DHT22;25541;47.458;9.644;2022-12-05T07:26:26;6.30;94.00
38936;DHT22;25541;47.458;9.644;2022-12-05T07:28:54;6.30;93.30
38936;DHT22;25541;47.458;9.644;2022-12-05T07:31:21;6.40;93.60
38936;DHT22;25541;47.458;9.644;2022-12-05T07:33:48;6.50;93.10
38936;DHT22;25541;47.458;9.644;2022-12-05T07:36:17;6.40;92.40
38936;DHT22;25541;47.458;9.644;2022-12-05T07:38:43;6.40;92.20
38936;DHT22;25541;47.458;9.644;2022-12-05T07:41:18;6.40;91.90
38936;DHT22;25541;47.458;9.644;2022-12-05T07:43:44;6.40;92.00
38936;DHT22;25541;47.458;9.644;2022-12-05T07:46:10;6.50;92.30
38936;DHT22;25541;47.458;9.644;2022-12-05T07:48:36;6.50;92.10
38936;DHT22;25541;47.458;9.644;2022-12-05T07:51:03;6.60;92.30
38936;DHT22;25541;47.458;9.644;2022-12-05T07:53:30;6.60;92.50
38936;DHT22;25541;47.458;9.644;2022-12-05T07:56:00;6.60;92.60
38936;DHT22;25541;47.458;9.644;2022-12-05T07:58:30;6.60;92.40
38936;DHT22;25541;47.458;9.644;2022-12-05T08:00:56;6.60;92.70
38936;DHT22;25541;47.458;9.644;2022-12-05T08:03:23;6.60;92.60
38936;DHT22;25541;47.458;9.644;2022-12-05T08:05:49;6.60;93.00
38936;DHT22;25541;47.458;9.644;2022-12-05T08:08:15;6.60;93.10
38936;DHT22;25541;47.458;9.644;2022-12-05T08:10:40;6.50;93.20
38936;DHT22;25541;47.458;9.644;2022-12-05T08:13:06;6.60;92.70
38936;DHT22;25541;47.458;9.644;2022-12-05T08:15:34;6.60;92.30
38936;DHT22;25541;47.458;9.644;2022-12-05T08:18:00;6.60;92.30
38936;DHT22;25541;47.458;9.644;2022-12-05T08:20:26;6.50;93.40
38936;DHT22;25541;47.458;9.644;2022-12-05T08:22:52;6.50;93.50
38936;DHT22;25541;47.458;9.644;2022-12-05T08:25:18;6.50;93.70
38936;DHT22;25541;47.458;9.644;2022-12-05T08:27:44;6.60;93.90
38936;DHT22;25541;47.458;9.644;2022-12-05T08:30:10;6.60;93.20
38936;DHT22;25541;47.458;9.644;2022-12-05T08:32:35;6.60;94.00
38936;DHT22;25541;47.458;9.644;2022-12-05T08:35:01;6.50;93.60
38936;DHT22;25541;47.458;9.644;2022-12-05T08:37:27;6.50;94.40
38936;DHT22;25541;47.458;9.644;2022-12-05T08:39:52;6.50;94.20
38936;DHT22;25541;47.458;9.644;2022-12-05T08:42:18;6.50;93.80
38936;DHT22;25541;47.458;9.644;2022-12-05T08:44:44;6.60;93.70
38936;DHT22;25541;47.458;9.644;2022-12-05T08:47:09;6.60;94.30
38936;DHT22;25541;47.458;9.644;2022-12-05T08:49:35;6.70;94.10
38936;DHT22;25541;47.458;9.644;2022-12-05T08:52:00;6.60;93.50
38936;DHT22;25541;47.458;9.644;2022-12-05T08:54:26;6.50;93.60
38936;DHT22;25541;47.458;9.644;2022-12-05T08:56:52;6.40;93.40
38936;DHT22;25541;47.458;9.644;2022-12-05T08:59:18;6.30;93.50
38936;DHT22;25541;47.458;9.644;2022-12-05T09:01:44;6.20;93.80
38936;DHT22;25541;47.458;9.644;2022-12-05T09:04:10;6.20;94.50
38936;DHT22;25541;47.458;9.644;2022-12-05T09:06:37;6.20;94.90
38936;DHT22;25541;47.458;9.644;2022-12-05T09:09:06;6.10;94.90
38936;DHT22;25541;47.458;9.644;2022-12-05T09:11:35;6.20;94.60
38936;DHT22;25541;47.458;9.644;2022-12-05T09:14:02;6.20;95.00
38936;DHT22;25541;47.458;9.644;2022-12-05T09:16:31;6.20;94.70
38936;DHT22;25541;47.458;9.644;2022-12-05T09:18:57;6.30;94.20
38936;DHT22;25541;47.458;9.644;2022-12-05T09:21:26;6.30;94.70
38936;DHT22;25541;47.458;9.644;2022-12-05T09:23:52;6.40;94.60
38936;DHT22;25541;47.458;9.644;2022-12-05T09:26:21;6.40;94.60
38936;DHT22;25541;47.458;9.644;2022-12-05T09:28:49;6.40;95.00
38936;DHT22;25541;47.458;9.644;2022-12-05T09:31:20;6.40;94.50
38936;DHT22;25541;47.458;9.644;2022-12-05T09:33:47;6.40;95.10
38936;DHT22;25541;47.458;9.644;2022-12-05T09:38:43;6.30;95.10
38936;DHT22;25541;47.458;9.644;2022-12-05T09:41:38;6.40;94.90
38936;DHT22;25541;47.458;9.644;2022-12-05T09:46:59;6.30;94.50
38936;DHT22;25541;47.458;9.644;2022-12-05T09:49:27;6.20;95.40
38936;DHT22;25541;47.458;9.644;2022-12-05T09:51:55;6.30;95.70
38936;DHT22;25541;47.458;9.644;2022-12-05T09:54:22;6.40;94.90
38936;DHT22;25541;47.458;9.644;2022-12-05T09:56:50;6.40;94.00
38936;DHT22;25541;47.458;9.644;2022-12-05T09:59:18;6.30;94.60
38936;DHT22;25541;47.458;9.644;2022-12-05T10:02:16;6.30;94.20
38936;DHT22;25541;47.458;9.644;2022-12-05T10:05:05;6.20;94.70
38936;DHT22;25541;47.458;9.644;2022-12-05T10:07:49;6.20;95.20
38936;DHT22;25541;47.458;9.644;2022-12-05T10:20:49;6.30;93.90
38936;DHT22;25541;47.458;9.644;2022-12-05T10:23:20;6.30;94.00
38936;DHT22;25541;47.458;9.644;2022-12-05T10:25:51;6.20;93.70
38936;DHT22;25541;47.458;9.644;2022-12-05T10:28:32;6.20;94.30
38936;DHT22;25541;47.458;9.644;2022-12-05T10:31:01;6.20;94.30
38936;DHT22;25541;47.458;9.644;2022-12-05T10:33:30;6.20;94.90
38936;DHT22;25541;47.458;9.644;2022-12-05T10:35:58;6.20;95.10
38936;DHT22;25541;47.458;9.644;2022-12-05T10:38:29;6.20;95.00
38936;DHT22;25541;47.458;9.644;2022-12-05T10:40:59;6.20;95.40
38936;DHT22;25541;47.458;9.644;2022-12-05T10:43:27;6.10;96.10
38936;DHT22;25541;47.458;9.644;2022-12-05T10:45:53;6.10;96.60
38936;DHT22;25541;47.458;9.644;2022-12-05T10:48:20;6.00;96.50
38936;DHT22;25541;47.458;9.644;2022-12-05T10:50:49;5.90;96.70
38936;DHT22;25541;47.458;9.644;2022-12-05T10:53:18;5.90;96.60
38936;DHT22;25541;47.458;9.644;2022-12-05T10:55:47;5.90;96.10
38936;DHT22;25541;47.458;9.644;2022-12-05T11:00:40;6.00;95.80
38936;DHT22;25541;47.458;9.644;2022-12-05T11:03:33;6.00;96.30
38936;DHT22;25541;47.458;9.644;2022-12-05T11:06:02;6.00;96.30
38936;DHT22;25541;47.458;9.644;2022-12-05T11:08:38;6.10;96.00
38936;DHT22;25541;47.458;9.644;2022-12-05T11:11:07;6.20;95.00
38936;DHT22;25541;47.458;9.644;2022-12-05T11:16:31;6.10;95.20
38936;DHT22;25541;47.458;9.644;2022-12-05T11:19:31;6.00;95.60
38936;DHT22;25541;47.458;9.644;2022-12-05T11:21:58;5.90;95.40
38936;DHT22;25541;47.458;9.644;2022-12-05T11:26:54;6.00;95.10
38936;DHT22;25541;47.458;9.644;2022-12-05T11:29:38;6.10;94.60
38936;DHT22;25541;47.458;9.644;2022-12-05T11:32:14;6.10;94.20
38936;DHT22;25541;47.458;9.644;2022-12-05T11:34:49;6.10;94.20
38936;DHT22;25541;47.458;9.644;2022-12-05T11:37:25;6.10;94.20
38936;DHT22;25541;47.458;9.644;2022-12-05T11:39:52;6.20;94.20
38936;DHT22;25541;47.458;9.644;2022-12-05T11:47:58;6.10;93.90
38936;DHT22;25541;47.458;9.644;2022-12-05T11:50:48;6.10;94.00
38936;DHT22;25541;47.458;9.644;2022-12-05T11:53:39;6.10;93.90
38936;DHT22;25541;47.458;9.644;2022-12-05T11:56:48;6.10;93.80
38936;DHT22;25541;47.458;9.644;2022-12-05T12:07:24;6.10;93.70
38936;DHT22;25541;47.458;9.644;2022-12-05T12:26:12;6.00;93.40
38936;DHT22;25541;47.458;9.644;2022-12-05T12:28:45;6.10;93.20
38936;DHT22;25541;47.458;9.644;2022-12-05T12:42:39;6.50;91.20
38936;DHT22;25541;47.458;9.644;2022-12-05T12:45:26;6.60;90.70
38936;DHT22;25541;47.458;9.644;2022-12-05T12:51:02;6.80;90.10
38936;DHT22;25541;47.458;9.644;2022-12-05T13:03:53;6.60;90.70
38936;DHT22;25541;47.458;9.644;2022-12-05T13:06:46;6.70;90.50
38936;DHT22;25541;47.458;9.644;2022-12-05T13:09:27;6.70;90.10
38936;DHT22;25541;47.458;9.644;2022-12-05T13:11:58;6.70;90.10
38936;DHT22;25541;47.458;9.644;2022-12-05T13:14:25;6.80;89.50
38936;DHT22;25541;47.458;9.644;2022-12-05T13:16:54;6.90;90.10
38936;DHT22;25541;47.458;9.644;2022-12-05T13:19:28;6.90;89.50
38936;DHT22;25541;47.458;9.644;2022-12-05T13:21:57;6.80;90.20
38936;DHT22;25541;47.458;9.644;2022-12-05T13:24:27;6.90;90.40
38936;DHT22;25541;47.458;9.644;2022-12-05T13:27:00;6.90;89.20
38936;DHT22;25541;47.458;9.644;2022-12-05T13:29:31;6.90;89.00
38936;DHT22;25541;47.458;9.644;2022-12-05T13:32:03;6.90;88.10
38936;DHT22;25541;47.458;9.644;2022-12-05T13:34:41;7.00;89.30
38936;DHT22;25541;47.458;9.644;2022-12-05T13:37:23;7.00;89.00
38936;DHT22;25541;47.458;9.644;2022-12-05T13:40:48;7.00;88.70
38936;DHT22;25541;47.458;9.644;2022-12-05T13:43:41;7.00;88.30
38936;DHT22;25541;47.458;9.644;2022-12-05T13:46:10;7.10;88.40
38936;DHT22;25541;47.458;9.644;2022-12-05T13:48:42;7.10;87.30
38936;DHT22;25541;47.458;9.644;2022-12-05T13:51:38;7.20;86.00
38936;DHT22;25541;47.458;9.644;2022-12-05T13:54:16;7.20;88.00
38936;DHT22;25541;47.458;9.644;2022-12-05T13:56:55;7.20;86.20
38936;DHT22;25541;47.458;9.644;2022-12-05T14:00:03;7.20;85.70
38936;DHT22;25541;47.458;9.644;2022-12-05T14:07:45;7.10;86.30
38936;DHT22;25541;47.458;9.644;2022-12-05T14:12:57;7.00;86.30
38936;DHT22;25541;47.458;9.644;2022-12-05T14:15:34;6.90;88.30
38936;DHT22;25541;47.458;9.644;2022-12-05T14:18:51;6.90;88.50
38936;DHT22;25541;47.458;9.644;2022-12-05T14:29:47;6.80;88.60
38936;DHT22;25541;47.458;9.644;2022-12-05T14:32:29;6.70;88.70
38936;DHT22;25541;47.458;9.644;2022-12-05T14:40:38;6.40;90.60
38936;DHT22;25541;47.458;9.644;2022-12-05T14:50:46;6.30;91.40
38936;DHT22;25541;47.458;9.644;2022-12-05T15:01:22;6.00;93.50
38936;DHT22;25541;47.458;9.644;2022-12-05T15:12:03;5.70;93.70
38936;DHT22;25541;47.458;9.644;2022-12-05T15:14:32;5.60;93.80
38936;DHT22;25541;47.458;9.644;2022-12-05T15:17:00;5.60;93.50
38936;DHT22;25541;47.458;9.644;2022-12-05T15:19:32;5.70;93.40
38936;DHT22;25541;47.458;9.644;2022-12-05T15:22:05;5.60;93.30
38936;DHT22;25541;47.458;9.644;2022-12-05T15:24:36;5.60;93.10
38936;DHT22;25541;47.458;9.644;2022-12-05T15:27:04;5.60;93.10
38936;DHT22;25541;47.458;9.644;2022-12-05T15:29:31;5.70;93.30
38936;DHT22;25541;47.458;9.644;2022-12-05T15:40:16;5.60;93.10
38936;DHT22;25541;47.458;9.644;2022-12-05T15:42:46;5.70;93.00
38936;DHT22;25541;47.458;9.644;2022-12-05T15:47:39;5.70;92.90
38936;DHT22;25541;47.458;9.644;2022-12-05T15:50:11;5.70;92.90
38936;DHT22;25541;47.458;9.644;2022-12-05T15:58:23;5.80;92.20
38936;DHT22;25541;47.458;9.644;2022-12-05T16:03:51;5.80;91.90
38936;DHT22;25541;47.458;9.644;2022-12-05T16:06:28;5.80;92.10
38936;DHT22;25541;47.458;9.644;2022-12-05T16:08:56;5.80;92.10
38936;DHT22;25541;47.458;9.644;2022-12-05T16:11:23;5.90;92.10
38936;DHT22;25541;47.458;9.644;2022-12-05T16:13:50;5.90;92.20
38936;DHT22;25541;47.458;9.644;2022-12-05T16:16:22;5.90;92.00
38936;DHT22;25541;47.458;9.644;2022-12-05T16:18:56;5.90;92.20
38936;DHT22;25541;47.458;9.644;2022-12-05T16:21:36;5.90;92.10
38936;DHT22;25541;47.458;9.644;2022-12-05T16:24:07;5.90;92.20
38936;DHT22;25541;47.458;9.644;2022-12-05T16:26:39;5.90;92.20
38936;DHT22;25541;47.458;9.644;2022-12-05T16:29:07;5.80;92.20
38936;DHT22;25541;47.458;9.644;2022-12-05T16:31:56;5.90;92.40
38936;DHT22;25541;47.458;9.644;2022-12-05T16:34:23;5.80;92.70
38936;DHT22;25541;47.458;9.644;2022-12-05T16:36:51;5.70;92.90
38936;DHT22;25541;47.458;9.644;2022-12-05T16:39:19;5.60;93.10
38936;DHT22;25541;47.458;9.644;2022-12-05T16:41:44;5.50;93.50
38936;DHT22;25541;47.458;9.644;2022-12-05T16:44:47;5.50;93.60
38936;DHT22;25541;47.458;9.644;2022-12-05T16:47:51;5.40;93.70
38936;DHT22;25541;47.458;9.644;2022-12-05T16:50:32;5.40;93.70
38936;DHT22;25541;47.458;9.644;2022-12-05T16:55:32;5.40;93.60
38936;DHT22;25541;47.458;9.644;2022-12-05T16:58:01;5.40;93.50
38936;DHT22;25541;47.458;9.644;2022-12-05T17:00:27;5.50;93.40
38936;DHT22;25541;47.458;9.644;2022-12-05T17:02:52;5.50;93.40
38936;DHT22;25541;47.458;9.644;2022-12-05T17:05:18;5.50;93.40
38936;DHT22;25541;47.458;9.644;2022-12-05T17:07:44;5.60;93.30
38936;DHT22;25541;47.458;9.644;2022-12-05T17:10:09;5.60;93.30
38936;DHT22;25541;47.458;9.644;2022-12-05T17:12:35;5.60;93.30
38936;DHT22;25541;47.458;9.644;2022-12-05T17:15:01;5.50;93.20
38936;DHT22;25541;47.458;9.644;2022-12-05T17:17:26;5.60;93.30
38936;DHT22;25541;47.458;9.644;2022-12-05T17:19:52;5.60;92.70
38936;DHT22;25541;47.458;9.644;2022-12-05T17:22:18;5.60;93.00
38936;DHT22;25541;47.458;9.644;2022-12-05T17:24:44;5.50;93.00
38936;DHT22;25541;47.458;9.644;2022-12-05T17:27:12;5.50;92.90
38936;DHT22;25541;47.458;9.644;2022-12-05T17:29:38;5.40;93.50
38936;DHT22;25541;47.458;9.644;2022-12-05T17:32:04;5.40;93.90
38936;DHT22;25541;47.458;9.644;2022-12-05T17:34:30;5.40;93.90
38936;DHT22;25541;47.458;9.644;2022-12-05T17:36:55;5.30;94.20
38936;DHT22;25541;47.458;9.644;2022-12-05T17:39:21;5.20;94.50
38936;DHT22;25541;47.458;9.644;2022-12-05T17:41:47;5.10;94.50
38936;DHT22;25541;47.458;9.644;2022-12-05T17:44:13;5.10;94.40
38936;DHT22;25541;47.458;9.644;2022-12-05T17:46:41;5.10;94.50
38936;DHT22;25541;47.458;9.644;2022-12-05T17:49:14;5.10;94.70
38936;DHT22;25541;47.458;9.644;2022-12-05T17:51:42;5.00;94.40
38936;DHT22;25541;47.458;9.644;2022-12-05T17:54:08;5.00;94.30
38936;DHT22;25541;47.458;9.644;2022-12-05T17:56:34;5.00;94.50
38936;DHT22;25541;47.458;9.644;2022-12-05T17:58:59;5.00;94.60
38936;DHT22;25541;47.458;9.644;2022-12-05T18:01:25;5.00;94.80
38936;DHT22;25541;47.458;9.644;2022-12-05T18:03:51;5.00;95.00
38936;DHT22;25541;47.458;9.644;2022-12-05T18:06:17;4.90;94.70
38936;DHT22;25541;47.458;9.644;2022-12-05T18:08:43;5.00;95.00
38936;DHT22;25541;47.458;9.644;2022-12-05T18:11:13;4.90;95.10
38936;DHT22;25541;47.458;9.644;2022-12-05T18:13:38;4.90;95.20
38936;DHT22;25541;47.458;9.644;2022-12-05T18:16:04;4.90;95.20
38936;DHT22;25541;47.458;9.644;2022-12-05T18:18:30;4.90;95.10
38936;DHT22;25541;47.458;9.644;2022-12-05T18:21:06;4.90;95.10
38936;DHT22;25541;47.458;9.644;2022-12-05T18:23:34;5.00;95.00
38936;DHT22;25541;47.458;9.644;2022-12-05T18:26:00;5.00;94.80
38936;DHT22;25541;47.458;9.644;2022-12-05T18:28:25;5.00;94.80
38936;DHT22;25541;47.458;9.644;2022-12-05T18:31:09;5.10;94.70
38936;DHT22;25541;47.458;9.644;2022-12-05T18:33:34;5.00;94.90
38936;DHT22;25541;47.458;9.644;2022-12-05T18:36:08;5.10;95.00
38936;DHT22;25541;47.458;9.644;2022-12-05T18:38:35;5.00;95.00
38936;DHT22;25541;47.458;9.644;2022-12-05T18:41:02;5.00;95.20
38936;DHT22;25541;47.458;9.644;2022-12-05T18:43:28;5.00;95.30
38936;DHT22;25541;47.458;9.644;2022-12-05T18:45:58;5.00;95.50
38936;DHT22;25541;47.458;9.644;2022-12-05T18:48:25;5.00;95.40
38936;DHT22;25541;47.458;9.644;2022-12-05T18:50:51;5.10;95.40
38936;DHT22;25541;47.458;9.644;2022-12-05T18:53:17;5.10;95.40
38936;DHT22;25541;47.458;9.644;2022-12-05T18:55:43;5.10;95.00
38936;DHT22;25541;47.458;9.644;2022-12-05T18:58:09;5.20;95.50
38936;DHT22;25541;47.458;9.644;2022-12-05T19:00:35;5.20;94.70
38936;DHT22;25541;47.458;9.644;2022-12-05T19:03:00;5.30;94.60
38936;DHT22;25541;47.458;9.644;2022-12-05T19:05:26;5.30;94.60
38936;DHT22;25541;47.458;9.644;2022-12-05T19:07:52;5.40;94.30
38936;DHT22;25541;47.458;9.644;2022-12-05T19:10:18;5.40;94.40
38936;DHT22;25541;47.458;9.644;2022-12-05T19:12:44;5.50;93.90
38936;DHT22;25541;47.458;9.644;2022-12-05T19:15:09;5.50;94.00
38936;DHT22;25541;47.458;9.644;2022-12-05T19:17:35;5.50;94.00
38936;DHT22;25541;47.458;9.644;2022-12-05T19:20:01;5.60;94.00
38936;DHT22;25541;47.458;9.644;2022-12-05T19:22:26;5.60;94.90
38936;DHT22;25541;47.458;9.644;2022-12-05T19:24:52;5.70;93.30
38936;DHT22;25541;47.458;9.644;2022-12-05T19:27:18;5.80;92.90
38936;DHT22;25541;47.458;9.644;2022-12-05T19:29:44;5.80;92.80
38936;DHT22;25541;47.458;9.644;2022-12-05T19:32:09;5.90;92.70
38936;DHT22;25541;47.458;9.644;2022-12-05T19:34:35;5.80;92.30
38936;DHT22;25541;47.458;9.644;2022-12-05T19:37:01;5.80;92.30
38936;DHT22;25541;47.458;9.644;2022-12-05T19:39:27;5.70;92.40
38936;DHT22;25541;47.458;9.644;2022-12-05T19:41:54;5.80;92.10
38936;DHT22;25541;47.458;9.644;2022-12-05T19:44:22;5.70;92.40
38936;DHT22;25541;47.458;9.644;2022-12-05T19:46:48;5.80;91.90
38936;DHT22;25541;47.458;9.644;2022-12-05T19:49:14;5.80;91.50
38936;DHT22;25541;47.458;9.644;2022-12-05T19:51:42;5.80;91.30
38936;DHT22;25541;47.458;9.644;2022-12-05T19:54:11;5.90;91.00
38936;DHT22;25541;47.458;9.644;2022-12-05T19:56:37;6.00;90.40
38936;DHT22;25541;47.458;9.644;2022-12-05T19:59:04;6.10;90.40
38936;DHT22;25541;47.458;9.644;2022-12-05T20:01:32;6.10;89.90
38936;DHT22;25541;47.458;9.644;2022-12-05T20:04:00;6.10;90.30
38936;DHT22;25541;47.458;9.644;2022-12-05T20:06:30;6.00;90.10
38936;DHT22;25541;47.458;9.644;2022-12-05T20:08:57;6.00;90.40
38936;DHT22;25541;47.458;9.644;2022-12-05T20:11:23;5.90;90.60
38936;DHT22;25541;47.458;9.644;2022-12-05T20:13:52;5.80;91.30
38936;DHT22;25541;47.458;9.644;2022-12-05T20:16:19;5.60;92.00
38936;DHT22;25541;47.458;9.644;2022-12-05T20:18:47;5.60;92.60
38936;DHT22;25541;47.458;9.644;2022-12-05T20:21:17;5.60;92.70
38936;DHT22;25541;47.458;9.644;2022-12-05T20:23:43;5.60;94.40
38936;DHT22;25541;47.458;9.644;2022-12-05T20:26:11;5.70;93.30
38936;DHT22;25541;47.458;9.644;2022-12-05T20:28:38;5.60;92.90
38936;DHT22;25541;47.458;9.644;2022-12-05T20:31:19;5.60;92.90
38936;DHT22;25541;47.458;9.644;2022-12-05T20:33:45;5.50;93.10
38936;DHT22;25541;47.458;9.644;2022-12-05T20:36:19;5.40;93.10
38936;DHT22;25541;47.458;9.644;2022-12-05T20:38:46;5.40;93.20
38936;DHT22;25541;47.458;9.644;2022-12-05T20:41:16;5.30;93.20
38936;DHT22;25541;47.458;9.644;2022-12-05T20:43:46;5.30;93.40
38936;DHT22;25541;47.458;9.644;2022-12-05T20:46:16;5.20;93.60
38936;DHT22;25541;47.458;9.644;2022-12-05T20:48:42;5.10;93.60
38936;DHT22;25541;47.458;9.644;2022-12-05T20:51:09;5.10;94.00
38936;DHT22;25541;47.458;9.644;2022-12-05T20:53:36;5.10;97.40
38936;DHT22;25541;47.458;9.644;2022-12-05T20:56:08;5.10;94.70
38936;DHT22;25541;47.458;9.644;2022-12-05T20:58:34;5.10;93.90
38936;DHT22;25541;47.458;9.644;2022-12-05T21:01:02;5.10;93.80
38936;DHT22;25541;47.458;9.644;2022-12-05T21:03:29;5.10;94.00
38936;DHT22;25541;47.458;9.644;2022-12-05T21:05:54;5.00;94.50
38936;DHT22;25541;47.458;9.644;2022-12-05T21:08:21;5.10;94.40
38936;DHT22;25541;47.458;9.644;2022-12-05T21:10:51;5.10;93.80
38936;DHT22;25541;47.458;9.644;2022-12-05T21:13:18;5.00;93.80
38936;DHT22;25541;47.458;9.644;2022-12-05T21:15:44;4.90;94.20
38936;DHT22;25541;47.458;9.644;2022-12-05T21:18:10;4.80;94.50
38936;DHT22;25541;47.458;9.644;2022-12-05T21:20:36;4.70;94.50
38936;DHT22;25541;47.458;9.644;2022-12-05T21:23:02;4.60;95.00
38936;DHT22;25541;47.458;9.644;2022-12-05T21:25:27;4.60;95.30
38936;DHT22;25541;47.458;9.644;2022-12-05T21:28:00;4.50;95.10
38936;DHT22;25541;47.458;9.644;2022-12-05T21:30:26;4.50;95.20
38936;DHT22;25541;47.458;9.644;2022-12-05T21:32:53;4.40;95.30
38936;DHT22;25541;47.458;9.644;2022-12-05T21:35:19;4.40;95.40
38936;DHT22;25541;47.458;9.644;2022-12-05T21:37:45;4.40;95.70
38936;DHT22;25541;47.458;9.644;2022-12-05T21:40:10;4.30;95.70
38936;DHT22;25541;47.458;9.644;2022-12-05T21:42:36;4.30;95.80
38936;DHT22;25541;47.458;9.644;2022-12-05T21:45:02;4.30;95.90
38936;DHT22;25541;47.458;9.644;2022-12-05T21:47:28;4.30;96.20
38936;DHT22;25541;47.458;9.644;2022-12-05T21:49:54;4.20;96.20
38936;DHT22;25541;47.458;9.644;2022-12-05T21:52:20;4.30;96.30
38936;DHT22;25541;47.458;9.644;2022-12-05T21:54:46;4.30;96.10
38936;DHT22;25541;47.458;9.644;2022-12-05T21:57:11;4.30;95.90
38936;DHT22;25541;47.458;9.644;2022-12-05T21:59:37;4.20;95.90
38936;DHT22;25541;47.458;9.644;2022-12-05T22:02:03;4.20;96.10
38936;DHT22;25541;47.458;9.644;2022-12-05T22:04:28;4.30;95.90
38936;DHT22;25541;47.458;9.644;2022-12-05T22:06:54;4.30;95.80
38936;DHT22;25541;47.458;9.644;2022-12-05T22:09:20;4.30;95.80
38936;DHT22;25541;47.458;9.644;2022-12-05T22:11:46;4.30;95.90
38936;DHT22;25541;47.458;9.644;2022-12-05T22:14:11;4.40;95.80
38936;DHT22;25541;47.458;9.644;2022-12-05T22:16:37;4.30;95.80
38936;DHT22;25541;47.458;9.644;2022-12-05T22:19:03;4.30;95.90
38936;DHT22;25541;47.458;9.644;2022-12-05T22:21:29;4.30;95.80
38936;DHT22;25541;47.458;9.644;2022-12-05T22:23:58;4.30;95.80
38936;DHT22;25541;47.458;9.644;2022-12-05T22:26:24;4.30;95.90